Main page


Airports :

Nottingham Leicester Derby, England

East Midlands Airport

latitude: 52-50N, longitude: 001-20W, elevation: 94 m

Current weather observation

The report was made 26 minutes ago, at 17:20 UTC
Wind 4 kt from the North, varying between Northwest and Northeast
Temperature 5°C
Humidity 81%
Pressure 1032 hPa
Visibility 10 km or more
Scattered clouds at a height of 3600 ft

METAR: EGNX 201720Z 36004KT 320V040 9999 SCT036 05/02 Q1032

Time: 17:46 (17:46 UTC)


The report was made 46 minutes ago, at 17:00 UTC
Forecast valid from 20 at 18 UTC to 21 at 18 UTC
Wind 10 kt from the North
Visibility 10 km or more
Scattered clouds at a height of 3000 ft
from 20 at 21 UTC to 20 at 24 UTC
Wind 9 kt from the West
Probability 30%
from 21 at 02 UTC to 21 at 08 UTC
Visibility: 6000 m
Probability 30% :
from 21 at 15 UTC to 21 at 18 UTC
Visibility: 7000 m
Broken clouds at a height of 1400 ft
light rain

TAF: EGNX 201700Z 2018/2118 01010KT 9999 SCT030 BECMG 2021/2024 27009KT PROB30 2102/2108 6000 PROB30 TEMPO 2115/2118 7000 -RA BKN014

Weather observations and forecasts of more than 4000 airports (METAR and TAF reports).

The available stations are represented by yellow and red dots on the map.

Hover mouse over dot to see the name of the station.

Then click to see weather observations and forecasts.

To change the map : click on the green buttons with a black cross to zoom in, on the green button with a dash to zoom out, or on the green arrows for adjacent maps.